Auburn, CA

1:56 PM PDT on October 24, 2014 (GMT -0700)
Beale Air Force Base | Change Station
CLOSE
Current Station
Airport
Location: Beale AFB,
Elevation: 112 ft
Nearby Weather Stations

Elev 112 ft 39.14 °N, 121.44 °W | Updated 58 minutes ago

Clear
Clear
73 °F
Feels Like 73 °F
N
8
Wind Variable Wind from South

Today
High -- | Low -- °F
--% Chance of Precip.
Yesterday
High -- | Low -- °F
Precip. -- in
7:23 AM 6:13 PM
New Moon, 1% visible
Pressure 30.14 in
Visibility 10.0 miles
Clouds Clear
Dew Point 50 °F
Humidity 43%
Rainfall 0.00 in
Snow Depth Not available.
UV 5 out of 12
Pollen 3.50 out of 12
Ozone Good
PM2.5 Good
Flu Activity Sporadic
METAR KBAB 241958Z AUTO 18007KT 10SM CLR 23/10 A2992 RMK AO2 SLP207 T02300097 $

More Conditions Fewer Conditions

Pressure 30.14 in
Visibility 10.0 miles
Clouds Clear
Dew Point 50 °F
Humidity 43%
Rainfall 0.00 in
Snow Depth Not available.
UV 5 out of 12
Pollen 3.50 out of 12
Ozone Good
PM2.5 Good
Flu Activity Sporadic
METAR KBAB 241958Z AUTO 18007KT 10SM CLR 23/10 A2992 RMK AO2 SLP207 T02300097 $

More Conditions Fewer Conditions

10-Day Weather Forecast

Almanac

Astronomy

Oct. 24, 2014 Rise Set
Actual Time 7:23 AM PDT 6:13 PM PDT
Civil Twilight 6:56 AM PDT 6:40 PM PDT
Nautical Twilight 6:24 AM PDT 7:11 PM PDT
Astronomical Twilight 5:53 AM PDT 7:42 PM PDT
Moon 8:07 AM PDT 6:57 PM PDT
Length of Visible Light 11h 44m
Length of Day
10h 50m
Tomorrow will be 2m 21s shorter.
New Moon, 1% of the Moon is Illuminated
Today
New Moon
Oct 30
First Quarter
Nov 6
Full
Nov 14
Last Quarter
Nov 22
New

Today's Extremes

State Highs State Lows

Community

WunderPhotos

Upload Photos

1,764,654 photos uploaded!

Nearby

Air Quality

  Air Quality AQ Index Pollutant
Yesterday Good
OZONE
Yesterday Good
PM2.5
Current Good
OZONE
Current Good
PM2.5
Friday Good
OZONE
Saturday Good
OZONE
Sunday Good
OZONE
Monday Good
OZONE
Tuesday Good
OZONE
Wednesday Good
OZONE

Snow Depth

Station Depth Elevation
Rubicon #2 0 in 7500 ft
Echo Peak 0 in 7800 ft
Summit Meadow 0 in 9122 ft
Leavitt Meadows 0 in 7200 ft
Virginia Lakes Ridge 0 in 9200 ft

Earthquake Activity

City Distance Mag. Time & Date
Gerlach-Empire, Nevada 117 miles 2.5 7:16 AM PDT
2014-10-23
Minimum magnitude displayed is 2.5.

Coastal Water Temperatures

Place Temperature
No Stations Reporting

Nearby Weather Stations